• Join FlightAware (Why Join?)
  • Login
  • US Flag 
12:00AM EDT


 

Airport Tracker/Info


-or-


 

Live Flight TrackerFlight Track Log ✈ UCA5001 ✈ 07-May-2013 ✈ KIAD - KROA

Flight Track Log - Related Links

Times and Time Zones

All times are in EDT time to prevent confusion due to time zone crossing. See the UCA5001 flight status page for this flight to view local times or setup timezone preferences in your user account.

Time Position Orientation Groundspeed Altitude Reporting Facility
EDT Latitude Longitude Course Direction KTS MPH feet Rate Location/Type
03:39PM 38.8833 -77.4833 235° Southwest 168 193 3,800  Level Potomac TRACON
03:40PM 38.8500 -77.5167 218° Southwest 196 226 5,700 1,920 Climbing Potomac TRACON
03:40PM 38.8333 -77.5833 252° West 200 230 7,500 1,200 Climbing Potomac TRACON
03:41PM 38.8000 -77.6333 229° Southwest 215 247 8,000 300 Climbing Potomac TRACON
03:42PM 38.7159 -77.7542 223° Southwest  Level FlightAware Approximate
03:42PM 38.7600 -77.6708 216° Southwest 240 276 8,100  Level Washington Center
03:43PM 38.6675 -77.8123 223° Southwest  Level FlightAware Approximate
03:43PM 38.7333 -77.7581 249° West 277 319 8,100  Level Washington Center
03:44PM 38.6211 -77.8722 235° Southwest  Level FlightAware Approximate
03:44PM 38.6886 -77.8072 221° Southwest 241 277 10,100  Level Washington Center
03:45PM 38.6397 -77.8669 224° Southwest 247 284 10,400 1,080 Climbing Washington Center
03:46PM 38.5986 -77.9347 232° Southwest 247 284 12,300 1,680 Climbing Washington Center
03:47PM 38.5642 -78.0000 236° Southwest 229 264 13,800 840 Climbing Washington Center
03:48PM 38.5231 -78.0678 232° Southwest 229 264 14,000 120 Climbing Washington Center
03:49PM 38.4842 -78.1353 234° Southwest 240 276 14,100  Climbing Washington Center
03:50PM 38.4367 -78.2131 232° Southwest 261 300 14,000 -60 Descending Washington Center
03:51PM 38.3931 -78.2911 235° Southwest 274 315 14,000  Level Washington Center
03:52PM 38.3456 -78.3714 233° Southwest 279 321 14,000  Level Washington Center
03:53PM 38.2997 -78.4492 233° Southwest 279 321 14,000  Level Washington Center
03:54PM 38.2544 -78.5189 230° Southwest 274 315 14,000  Level Washington Center
03:55PM 38.2106 -78.5992 235° Southwest 272 313 14,000  Level Washington Center
03:56PM 38.1650 -78.6764 233° Southwest 278 320 14,000  Level Washington Center
03:57PM 38.1192 -78.7511 232° Southwest 278 320 14,000 -120 Level Washington Center
03:58PM 38.0778 -78.8206 233° Southwest 278 320 13,800 -480 Descending Washington Center
03:59PM 38.0317 -78.9003 234° Southwest 278 320 13,100 -720 Descending Washington Center
04:00PM 38.0000 -78.9939 247° West 283 326 12,400 -660 Descending Washington Center
04:01PM 37.9747 -79.0717 248° West 271 312 11,800 -720 Descending Washington Center
04:02PM 37.9269 -79.1406 229° Southwest 241 277 11,000 -360 Descending Washington Center
04:03PM 37.8833 -79.1989 227° Southwest 236 272 11,200 60 Climbing Washington Center
04:04PM 37.8378 -79.2600 227° Southwest 236 272 11,200 -60 Level Washington Center
04:05PM 37.7961 -79.3211 229° Southwest 236 272 11,100  Descending Washington Center
04:06PM 37.7569 -79.3794 230° Southwest 236 272 11,200 -540 Climbing Washington Center
04:07PM 37.7089 -79.4428 226° Southwest 236 272 10,100 -960 Descending Washington Center
04:08PM 37.6675 -79.4983 227° Southwest 236 272 9,300 -900 Descending Washington Center
04:09PM 37.6194 -79.5639 227° Southwest 236 272 8,400 -900 Descending Washington Center
04:10PM 37.5800 -79.6197 228° Southwest 236 272 7,500 -960 Descending Washington Center
04:11PM 37.5319 -79.6878 228° Southwest 236 272 6,500 -840 Descending Washington Center
04:12PM 37.4925 -79.7433 228° Southwest 236 272 5,900 -720 Descending Washington Center
04:13PM 37.4419 -79.8111 227° Southwest 236 272 5,100 -840 Descending Washington Center
04:14PM 37.3978 -79.8792 231° Southwest 247 284 4,200 -900 Descending Washington Center
04:15PM 37.3642 -79.9453 237° Southwest 247 284 3,300 -900 Descending Washington Center
04:17PM 37.3167 -79.9667 218° Southwest  Level FlightAware Approximate